Time;durP1;ratioP1;P1;durP2;ratioP2;P2;SDS_P1;SDS_P2;PMS_P1;PMS_P2;Temp;Humidity;BMP_temperature;BMP_pressure;BME280_temperature;BME280_humidity;BME280_pressure;Samples;Min_cycle;Max_cycle;Signal;HPM_P1;HPM_P2
2023/12/02 00:01:06;;;;;;;92.70;48.20;;;;;;;-3.34;86.68;98883.43;218578;1256;140004;-64
2023/12/02 00:06:11;;;;;;;93.40;49.30;;;;;;;-3.33;86.69;98880.05;217989;1259;140993;-64
2023/12/02 00:11:16;;;;;;;91.60;43.90;;;;;;;-3.35;86.65;98866.84;217765;1257;138795;-64
2023/12/02 00:16:22;;;;;;;110.90;51.60;;;;;;;-3.33;86.66;98867.25;219393;1257;139546;-65
2023/12/02 00:21:27;;;;;;;85.80;48.40;;;;;;;-3.33;86.58;98866.38;218405;1260;140473;-65
2023/12/02 00:26:34;;;;;;;108.30;53.00;;;;;;;-3.35;86.55;98862.56;217971;1259;140817;-64
2023/12/02 00:31:39;;;;;;;95.30;49.40;;;;;;;-3.36;86.67;98853.95;218528;1257;140521;-66
2023/12/02 00:36:49;;;;;;;114.10;55.30;;;;;;;-3.38;86.34;98849.54;220149;1257;140569;-68
2023/12/02 00:41:54;;;;;;;105.40;54.10;;;;;;;-3.37;86.42;98846.14;219975;1256;140800;-67
2023/12/02 00:46:59;;;;;;;115.80;57.80;;;;;;;-3.37;86.26;98840.17;218535;1257;140397;-66
2023/12/02 00:52:05;;;;;;;114.70;56.30;;;;;;;-3.36;86.40;98833.48;217979;1257;139637;-66
2023/12/02 00:57:09;;;;;;;117.00;61.40;;;;;;;-3.42;86.26;98831.46;218601;1255;139651;-66
2023/12/02 01:02:14;;;;;;;113.80;57.40;;;;;;;-3.46;86.23;98832.65;218130;1257;1210626;-67
2023/12/02 01:07:19;;;;;;;110.20;56.70;;;;;;;-3.53;86.22;98839.53;217990;1258;139192;-68
2023/12/02 01:12:24;;;;;;;116.90;56.30;;;;;;;-3.53;86.55;98847.55;217763;1257;139674;-68
2023/12/02 01:17:30;;;;;;;117.20;54.00;;;;;;;-3.50;86.87;98856.86;217791;1258;140086;-65
2023/12/02 01:22:36;;;;;;;112.50;55.90;;;;;;;-3.46;86.61;98853.13;219060;1257;140001;-67
2023/12/02 01:27:41;;;;;;;101.40;51.00;;;;;;;-3.44;86.70;98853.52;218151;1257;139767;-65
2023/12/02 01:32:47;;;;;;;113.00;56.70;;;;;;;-3.38;86.62;98858.59;217788;1259;139364;-66
2023/12/02 01:37:51;;;;;;;102.30;54.90;;;;;;;-3.35;86.59;98856.88;217932;1260;139233;-67
2023/12/02 01:42:55;;;;;;;119.50;56.50;;;;;;;-3.38;86.67;98857.67;218550;1255;138965;-67
2023/12/02 01:48:01;;;;;;;111.00;56.30;;;;;;;-3.43;86.59;98848.37;217903;1257;139211;-66
2023/12/02 01:53:07;;;;;;;104.90;53.40;;;;;;;-3.54;85.84;98847.80;217717;1256;139481;-66
2023/12/02 01:58:13;;;;;;;101.40;52.10;;;;;;;-3.61;85.81;98849.73;219054;1257;139359;-65
2023/12/02 02:03:17;;;;;;;103.80;54.30;;;;;;;-3.59;86.42;98856.83;218382;1257;140596;-66
2023/12/02 02:08:22;;;;;;;111.40;57.60;;;;;;;-3.58;86.37;98856.23;218121;1260;138977;-67
2023/12/02 02:13:27;;;;;;;98.80;53.90;;;;;;;-3.61;86.48;98857.39;218201;1256;139293;-66
2023/12/02 02:18:32;;;;;;;92.90;48.60;;;;;;;-3.70;86.24;98865.16;218202;1256;139181;-66
2023/12/02 02:23:37;;;;;;;109.40;51.00;;;;;;;-3.67;86.48;98873.59;218118;1256;139613;-66
2023/12/02 02:28:42;;;;;;;101.50;49.00;;;;;;;-3.62;86.69;98879.36;217919;1257;140594;-65
2023/12/02 02:33:46;;;;;;;96.60;50.50;;;;;;;-3.58;86.82;98885.88;218481;1260;160872;-65
2023/12/02 02:38:50;;;;;;;89.30;46.30;;;;;;;-3.60;86.57;98885.13;218219;1260;139176;-67
2023/12/02 02:43:54;;;;;;;95.60;47.30;;;;;;;-3.66;86.53;98875.52;218779;1258;138846;-66
2023/12/02 02:48:58;;;;;;;92.70;44.50;;;;;;;-3.71;86.54;98860.84;219923;1255;139100;-66
2023/12/02 02:54:04;;;;;;;103.80;44.50;;;;;;;-3.75;86.52;98845.58;218928;1256;140393;-70
2023/12/02 02:59:08;;;;;;;87.80;41.70;;;;;;;-3.77;86.41;98839.55;218166;1257;141047;-66
2023/12/02 03:04:13;;;;;;;91.10;42.40;;;;;;;-3.73;86.54;98832.00;219315;1256;140057;-68
2023/12/02 03:09:21;;;;;;;92.60;39.70;;;;;;;-3.69;86.29;98848.73;218063;1257;140574;-65
2023/12/02 03:14:26;;;;;;;95.50;42.70;;;;;;;-3.68;86.41;98849.48;218160;1259;140869;-64
2023/12/02 03:19:32;;;;;;;83.80;40.50;;;;;;;-3.60;86.67;98844.81;218354;1255;139988;-67
2023/12/02 03:24:37;;;;;;;97.40;44.20;;;;;;;-3.58;86.45;98843.84;218217;1257;140827;-67
2023/12/02 03:29:42;;;;;;;83.10;43.70;;;;;;;-3.60;86.40;98844.08;218089;1255;139269;-67
2023/12/02 03:34:49;;;;;;;93.60;47.20;;;;;;;-3.64;86.24;98831.35;218432;1256;139750;-65
2023/12/02 03:39:52;;;;;;;82.40;44.30;;;;;;;-3.69;86.20;98822.67;219483;1256;140401;-65
2023/12/02 03:44:57;;;;;;;98.30;42.90;;;;;;;-3.71;86.23;98824.23;218042;1256;139299;-69
2023/12/02 03:50:04;;;;;;;97.50;43.20;;;;;;;-3.72;86.09;98819.17;218501;1255;140361;-66
2023/12/02 03:55:10;;;;;;;90.70;42.60;;;;;;;-3.70;86.22;98823.40;218527;1257;139479;-69
2023/12/02 04:00:19;;;;;;;88.30;43.80;;;;;;;-3.66;86.58;98822.36;219666;1255;138990;-69
2023/12/02 04:05:25;;;;;;;92.70;45.60;;;;;;;-3.68;86.29;98827.34;218436;1256;139827;-71
2023/12/02 04:10:29;;;;;;;91.40;46.70;;;;;;;-3.71;86.31;98837.05;219104;1255;139663;-69
2023/12/02 04:15:35;;;;;;;86.50;43.50;;;;;;;-3.74;86.27;98841.24;218192;1256;140987;-70
2023/12/02 04:20:40;;;;;;;93.70;40.00;;;;;;;-3.74;86.12;98840.04;218958;1255;140006;-66
2023/12/02 04:25:45;;;;;;;96.50;48.00;;;;;;;-3.73;86.11;98833.17;219498;1257;140138;-67
2023/12/02 04:30:50;;;;;;;93.20;47.80;;;;;;;-3.73;86.15;98822.27;220402;1255;140041;-69
2023/12/02 04:35:54;;;;;;;89.30;44.20;;;;;;;-3.71;86.25;98809.76;220441;1255;139704;-68
2023/12/02 04:40:59;;;;;;;90.00;47.80;;;;;;;-3.72;85.96;98807.95;220167;1255;139845;-68
2023/12/02 04:46:07;;;;;;;100.50;44.50;;;;;;;-3.79;85.81;98809.15;219318;1256;140364;-68
2023/12/02 04:51:12;;;;;;;90.80;45.00;;;;;;;-3.83;85.61;98810.30;220389;1255;140899;-68
2023/12/02 04:56:17;;;;;;;98.00;44.50;;;;;;;-3.82;85.79;98828.23;219484;1255;139618;-69
2023/12/02 05:01:22;;;;;;;97.50;49.70;;;;;;;-3.80;85.97;98827.70;219194;1256;140533;-68
2023/12/02 05:06:28;;;;;;;99.40;51.80;;;;;;;-3.81;85.93;98826.57;218514;1256;139859;-66
2023/12/02 05:11:33;;;;;;;93.00;46.40;;;;;;;-3.81;86.14;98824.48;219083;1255;138875;-68
2023/12/02 05:16:42;;;;;;;98.70;44.00;;;;;;;-3.84;85.48;98822.38;218224;1256;142008;-69
2023/12/02 05:21:46;;;;;;;98.60;47.90;;;;;;;-3.88;85.67;98814.83;218551;1255;139668;-67
2023/12/02 05:26:51;;;;;;;107.50;48.50;;;;;;;-3.89;85.92;98815.92;218229;1256;140918;-68
2023/12/02 05:31:57;;;;;;;96.70;49.30;;;;;;;-3.94;85.86;98803.83;217970;1256;139055;-67
2023/12/02 05:37:02;;;;;;;110.50;51.40;;;;;;;-3.97;85.95;98800.04;217822;1256;139698;-69
2023/12/02 05:42:07;;;;;;;103.30;46.70;;;;;;;-3.98;85.89;98805.55;218544;1255;142302;-69
2023/12/02 05:47:15;;;;;;;90.70;48.80;;;;;;;-3.99;85.87;98786.62;218075;1256;140676;-68
2023/12/02 05:52:20;;;;;;;111.70;52.80;;;;;;;-4.03;85.98;98780.89;217980;1258;139874;-69
2023/12/02 05:57:25;;;;;;;103.60;49.70;;;;;;;-4.08;85.94;98781.77;218215;1255;139919;-69
2023/12/02 06:02:29;;;;;;;102.50;51.60;;;;;;;-4.16;85.92;98769.12;219800;1256;140183;-70
2023/12/02 06:07:34;;;;;;;105.60;49.40;;;;;;;-4.20;86.31;98771.10;218776;1255;140190;-69
2023/12/02 06:12:39;;;;;;;109.20;52.60;;;;;;;-4.24;86.20;98774.62;218816;1256;140934;-68
2023/12/02 06:17:45;;;;;;;119.70;51.90;;;;;;;-4.29;85.94;98780.83;219193;1255;140341;-68
2023/12/02 06:22:50;;;;;;;118.60;53.60;;;;;;;-4.32;86.47;98788.20;217718;1256;140233;-69
2023/12/02 06:27:55;;;;;;;125.10;54.90;;;;;;;-4.35;86.31;98788.13;220714;1255;140564;-68
2023/12/02 06:33:00;;;;;;;119.90;58.20;;;;;;;-4.37;86.23;98809.17;220479;1255;142459;-68
2023/12/02 06:38:04;;;;;;;133.00;59.00;;;;;;;-4.34;86.46;98817.27;220623;1255;139999;-70
2023/12/02 06:43:11;;;;;;;124.70;52.70;;;;;;;-4.28;86.56;98814.86;220442;1255;141134;-70
2023/12/02 06:48:15;;;;;;;114.60;51.40;;;;;;;-4.23;86.29;98816.31;219773;1255;141919;-69
2023/12/02 06:53:21;;;;;;;137.30;56.00;;;;;;;-4.20;86.40;98804.64;219358;1259;140196;-70
2023/12/02 06:58:26;;;;;;;111.70;52.60;;;;;;;-4.20;86.29;98803.20;219198;1255;143027;-70
2023/12/02 07:03:32;;;;;;;113.30;53.20;;;;;;;-4.15;86.59;98818.40;218382;1255;141228;-69
2023/12/02 07:08:40;;;;;;;;;;;;;;;-4.08;86.33;98813.88;217817;1255;140475;-70
2023/12/02 07:13:48;;;;;;;115.10;52.90;;;;;;;-4.05;86.29;98810.66;218922;1255;125998;-69
2023/12/02 07:18:53;;;;;;;128.00;55.50;;;;;;;-3.99;86.62;98821.27;217952;1256;140218;-70
2023/12/02 07:23:59;;;;;;;107.90;54.60;;;;;;;-3.98;86.59;98830.66;218626;1256;139765;-70
2023/12/02 07:29:04;;;;;;;110.90;51.30;;;;;;;-3.99;86.64;98825.08;219027;1256;139209;-69
2023/12/02 07:34:08;;;;;;;121.70;51.70;;;;;;;-3.93;86.42;98832.92;218904;1256;140519;-68
2023/12/02 07:39:13;;;;;;;120.30;49.00;;;;;;;-3.86;86.59;98849.48;218819;1257;139908;-69
2023/12/02 07:44:19;;;;;;;114.10;49.60;;;;;;;-3.77;86.50;98853.09;218456;1255;139815;-69
2023/12/02 07:49:24;;;;;;;109.00;48.60;;;;;;;-3.75;86.54;98844.14;217889;1256;139774;-69
2023/12/02 07:54:31;;;;;;;115.30;49.70;;;;;;;-3.74;86.71;98843.73;219399;1255;141456;-68
2023/12/02 07:59:36;;;;;;;92.00;43.60;;;;;;;-3.75;86.59;98848.63;219290;1256;141372;-68
2023/12/02 08:04:42;;;;;;;91.10;39.30;;;;;;;-3.73;86.55;98848.99;218210;1256;140522;-68
2023/12/02 08:09:47;;;;;;;98.90;37.00;;;;;;;-3.67;86.48;98852.45;219808;1255;139817;-68
2023/12/02 08:14:52;;;;;;;95.50;42.00;;;;;;;-3.62;86.49;98860.97;218560;1256;139180;-67
2023/12/02 08:19:56;;;;;;;98.20;42.50;;;;;;;-3.55;86.68;98861.09;219105;1256;139501;-69
2023/12/02 08:25:02;;;;;;;86.10;37.70;;;;;;;-3.49;86.94;98863.33;219992;1255;139101;-69
2023/12/02 08:30:07;;;;;;;78.10;32.00;;;;;;;-3.43;86.74;98874.55;219953;1256;139671;-69
2023/12/02 08:35:13;;;;;;;89.20;32.40;;;;;;;-3.41;86.50;98879.26;219902;1256;141002;-69
2023/12/02 08:40:18;;;;;;;78.30;30.80;;;;;;;-3.38;86.56;98886.05;220529;1256;139713;-69
2023/12/02 08:45:23;;;;;;;83.30;31.50;;;;;;;-3.34;86.64;98893.16;219423;1256;140239;-69
2023/12/02 08:50:28;;;;;;;81.10;29.40;;;;;;;-3.24;86.49;98892.05;218036;1256;139920;-70
2023/12/02 08:55:33;;;;;;;87.70;31.30;;;;;;;-3.16;86.61;98885.85;218814;1255;139568;-69
2023/12/02 09:00:38;;;;;;;73.20;32.10;;;;;;;-3.06;86.97;98892.00;218751;1256;139062;-69
2023/12/02 09:05:42;;;;;;;75.00;27.40;;;;;;;-3.00;86.68;98895.59;217719;1256;139221;-69
2023/12/02 09:10:47;;;;;;;88.60;32.40;;;;;;;-2.99;86.68;98894.19;218782;1255;140995;-70
2023/12/02 09:15:52;;;;;;;69.20;30.10;;;;;;;-2.93;86.78;98895.27;219454;1255;141105;-67
2023/12/02 09:20:58;;;;;;;81.30;32.50;;;;;;;-2.82;86.72;98896.13;218871;1255;140294;-68
2023/12/02 09:26:28;;;;;;;64.80;25.70;;;;;;;-2.71;86.80;98882.88;218032;1256;141393;-67
2023/12/02 09:31:32;;;;;;;64.90;26.80;;;;;;;-2.67;86.46;98872.91;218468;1258;140795;-68
2023/12/02 09:36:39;;;;;;;65.20;25.80;;;;;;;-2.67;86.44;98850.58;218354;1254;139592;-69
2023/12/02 09:41:51;;;;;;;72.70;32.10;;;;;;;-2.55;86.68;98857.30;218981;1256;140769;-69
2023/12/02 09:47:03;;;;;;;62.00;30.30;;;;;;;-2.33;86.48;98863.16;218180;1256;140182;-69
2023/12/02 09:52:34;;;;;;;70.50;29.30;;;;;;;-2.14;86.87;98889.52;219466;1256;140768;-69
2023/12/02 09:57:59;;;;;;;61.50;27.10;;;;;;;-1.94;86.77;98894.41;219335;1255;139320;-68
2023/12/02 13:59:49;;;;;;;64.60;24.10;;;;;;;-2.47;88.75;98783.86;219224;1254;388549;-68
2023/12/02 14:05:05;;;;;;;65.60;22.30;;;;;;;-2.44;88.49;98784.67;218423;1254;139886;-68
2023/12/02 14:10:15;;;;;;;57.80;22.90;;;;;;;-2.38;88.69;98786.78;217904;1255;139847;-68
2023/12/02 14:15:30;;;;;;;57.10;24.30;;;;;;;-2.41;88.47;98777.21;219751;1254;141831;-68
2023/12/02 14:21:10;;;;;;;74.80;23.80;;;;;;;-2.44;88.62;98792.70;218099;1256;141666;-68
2023/12/02 14:26:17;;;;;;;73.70;22.60;;;;;;;-2.44;88.85;98782.02;218565;1257;142149;-69
2023/12/02 14:31:33;;;;;;;70.50;25.30;;;;;;;-2.41;89.04;98790.06;218086;1259;140522;-69
2023/12/02 14:37:15;;;;;;;62.30;25.90;;;;;;;-2.42;88.96;98800.64;219172;1253;140890;-68
2023/12/02 14:42:42;;;;;;;62.90;20.40;;;;;;;-2.38;89.13;98814.77;217946;1257;139624;-68
2023/12/02 14:48:01;;;;;;;59.80;22.10;;;;;;;-2.41;88.93;98820.20;218732;1256;139960;-68
2023/12/02 14:53:10;;;;;;;46.30;20.80;;;;;;;-2.41;88.74;98830.58;218660;1258;139764;-67
2023/12/02 14:58:22;;;;;;;69.20;24.80;;;;;;;-2.41;89.11;98832.14;219075;1255;139626;-68
2023/12/02 15:03:29;;;;;;;52.60;20.20;;;;;;;-2.37;89.29;98822.50;219946;1258;140156;-74
2023/12/02 15:08:39;;;;;;;59.60;19.70;;;;;;;-2.32;88.83;98822.70;218985;1259;140215;-72
2023/12/02 15:13:45;;;;;;;53.10;22.50;;;;;;;-2.27;89.01;98825.11;219351;1256;140699;-71
2023/12/02 15:18:51;;;;;;;54.70;21.30;;;;;;;-2.26;89.04;98835.58;220501;1254;139182;-71
2023/12/02 15:23:55;;;;;;;46.40;20.00;;;;;;;-2.24;89.06;98839.28;220686;1256;139108;-70
2023/12/02 15:29:02;;;;;;;51.90;21.50;;;;;;;-2.18;89.10;98844.02;219579;1257;139208;-73
2023/12/02 15:34:07;;;;;;;50.80;21.30;;;;;;;-2.14;89.15;98856.60;219864;1256;140024;-69
2023/12/02 15:39:14;;;;;;;53.70;19.60;;;;;;;-2.11;88.96;98868.80;218917;1256;139951;-69
2023/12/02 15:44:19;;;;;;;48.10;18.20;;;;;;;-2.07;89.28;98888.92;218039;1259;139522;-68
2023/12/02 15:49:24;;;;;;;60.90;22.60;;;;;;;-1.98;89.65;98907.52;219234;1254;141766;-66
2023/12/02 15:54:33;;;;;;;64.50;24.00;;;;;;;-1.96;89.44;98926.09;218580;1254;140585;-72
2023/12/02 15:59:41;;;;;;;55.60;21.60;;;;;;;-1.90;89.52;98934.84;218229;1259;139868;-72
2023/12/02 16:04:49;;;;;;;60.40;23.50;;;;;;;-1.87;89.33;98921.07;218851;1254;139679;-71
2023/12/02 16:09:58;;;;;;;53.40;21.00;;;;;;;-1.91;89.11;98914.70;218710;1254;140559;-69
2023/12/02 16:15:06;;;;;;;63.50;23.50;;;;;;;-1.96;89.04;98914.99;219738;1258;140401;-68
2023/12/02 16:20:15;;;;;;;54.40;23.30;;;;;;;-1.98;89.27;98921.59;218442;1258;139962;-69
2023/12/02 16:25:24;;;;;;;52.60;20.10;;;;;;;-1.95;89.32;98917.63;218366;1254;139645;-70
2023/12/02 16:30:29;;;;;;;51.10;23.30;;;;;;;-2.04;89.05;98904.37;218334;1254;139460;-68
2023/12/02 16:35:38;;;;;;;47.00;19.70;;;;;;;-2.11;89.22;98896.25;218185;1254;140165;-67
2023/12/02 16:40:53;;;;;;;49.50;20.60;;;;;;;-2.15;89.29;98888.95;218020;1257;140629;-68
2023/12/02 16:46:00;;;;;;;55.00;20.90;;;;;;;-2.22;89.30;98889.88;219177;1254;141337;-69
2023/12/02 16:51:10;;;;;;;57.00;21.80;;;;;;;-2.20;89.43;98880.08;220016;1254;140200;-68
2023/12/02 16:56:32;;;;;;;46.20;19.30;;;;;;;-2.15;89.37;98880.41;218815;1254;141182;-68
2023/12/02 17:01:41;;;;;;;51.40;20.10;;;;;;;-2.12;89.50;98878.44;218928;1254;140049;-67
2023/12/02 17:06:47;;;;;;;51.60;21.60;;;;;;;-2.11;89.71;98873.11;219469;1258;141264;-69
2023/12/02 17:11:52;;;;;;;47.10;20.80;;;;;;;-2.10;89.62;98868.95;220533;1259;140481;-68
2023/12/02 17:16:59;;;;;;;47.30;22.00;;;;;;;-2.09;89.54;98878.05;220629;1254;140475;-68
2023/12/02 17:22:08;;;;;;;44.70;21.50;;;;;;;-2.05;89.59;98898.73;220495;1258;143004;-68
2023/12/02 17:27:31;;;;;;;58.90;19.30;;;;;;;-1.95;89.62;98905.85;220627;1254;139840;-67
2023/12/02 17:32:35;;;;;;;50.00;21.20;;;;;;;-1.84;89.67;98918.23;220534;1254;141261;-69
2023/12/02 17:37:39;;;;;;;48.40;20.90;;;;;;;-1.75;89.38;98929.21;220619;1254;141181;-68
2023/12/02 17:42:43;;;;;;;55.60;24.00;;;;;;;-1.71;89.07;98932.45;220607;1255;140040;-68
2023/12/02 17:47:48;;;;;;;53.40;21.30;;;;;;;-1.75;89.12;98913.15;220647;1254;141068;-69
2023/12/02 17:52:52;;;;;;;57.70;22.70;;;;;;;-1.79;88.96;98897.34;220434;1254;139760;-68
2023/12/02 17:57:56;;;;;;;50.60;22.90;;;;;;;-1.75;89.20;98903.13;220573;1254;140361;-67
2023/12/02 18:03:00;;;;;;;63.20;26.20;;;;;;;-1.70;89.05;98891.23;220551;1257;142259;-68
2023/12/02 18:08:05;;;;;;;61.50;23.60;;;;;;;-1.70;89.25;98888.59;220564;1257;140777;-66
2023/12/02 18:13:10;;;;;;;58.00;22.30;;;;;;;-1.73;89.24;98887.49;220304;1257;139807;-67
2023/12/02 18:22:15;;;;;;;54.30;20.40;;;;;;;-1.60;89.27;98922.02;215135;1298;657293;-67
2023/12/02 18:27:25;;;;;;;65.50;21.40;;;;;;;-1.58;89.12;98964.48;217127;1267;139066;-66
2023/12/02 18:32:33;;;;;;;56.00;24.50;;;;;;;-1.59;89.41;98980.22;216639;1267;200218;-67
2023/12/02 18:37:37;;;;;;;60.80;26.30;;;;;;;-1.57;89.67;98974.36;216648;1266;139116;-68
2023/12/02 18:42:41;;;;;;;64.50;23.30;;;;;;;-1.59;89.72;98974.67;217027;1265;139613;-69
2023/12/02 18:47:45;;;;;;;60.40;22.20;;;;;;;-1.64;89.24;98940.90;217253;1266;140972;-69
2023/12/02 18:52:52;;;;;;;60.70;22.30;;;;;;;-1.65;89.36;98911.05;217436;1266;139245;-68
2023/12/02 18:57:58;;;;;;;60.40;26.50;;;;;;;-1.57;89.65;98923.60;219483;1269;141388;-68
2023/12/02 19:03:02;;;;;;;66.40;26.70;;;;;;;-1.56;89.82;98953.06;219584;1267;140610;-69
2023/12/02 19:08:05;;;;;;;72.00;25.60;;;;;;;-1.55;89.65;98970.20;218124;1266;138685;-69
2023/12/02 19:13:10;;;;;;;68.20;26.60;;;;;;;-1.48;89.48;98986.91;218332;1266;139882;-68
2023/12/02 19:18:17;;;;;;;57.10;22.20;;;;;;;-1.37;89.87;98996.63;219002;1266;139651;-68
2023/12/02 19:23:22;;;;;;;56.50;23.60;;;;;;;-1.31;89.84;99010.61;218262;1266;140289;-68
2023/12/02 19:28:27;;;;;;;63.90;25.40;;;;;;;-1.34;89.46;99009.91;218217;1266;138515;-68
2023/12/02 19:33:35;;;;;;;64.90;25.20;;;;;;;-1.37;89.38;99013.16;216942;1266;138889;-67
2023/12/02 19:38:41;;;;;;;58.70;23.60;;;;;;;-1.34;89.40;99010.98;216853;1266;139572;-66
2023/12/02 19:43:45;;;;;;;69.30;27.80;;;;;;;-1.31;89.32;99020.23;218387;1269;139984;-66
2023/12/02 19:48:49;;;;;;;54.30;24.10;;;;;;;-1.30;89.65;99030.20;217661;1266;139372;-70
2023/12/02 19:53:54;;;;;;;67.70;27.30;;;;;;;-1.34;89.40;99031.84;217443;1266;138667;-66
2023/12/02 19:59:02;;;;;;;64.30;22.70;;;;;;;-1.39;89.53;99043.38;216422;1267;141003;-67
2023/12/02 20:04:08;;;;;;;63.30;24.20;;;;;;;-1.35;89.57;99056.27;217593;1266;138912;-67
2023/12/02 20:09:16;;;;;;;63.50;30.00;;;;;;;-1.31;89.50;99066.95;216570;1271;140497;-67
2023/12/02 20:14:23;;;;;;;72.00;28.80;;;;;;;-1.26;89.76;99077.73;217331;1266;140240;-66
2023/12/02 20:19:28;;;;;;;69.10;29.20;;;;;;;-1.25;89.88;99097.48;216447;1266;139459;-66
2023/12/02 20:24:39;;;;;;;68.50;25.80;;;;;;;-1.26;89.68;99103.06;217276;1272;236073;-66
2023/12/02 20:29:47;;;;;;;60.60;29.10;;;;;;;-1.25;89.45;99111.00;216891;1265;140807;-69
2023/12/02 20:34:55;;;;;;;64.60;26.60;;;;;;;-1.24;89.48;99115.73;216264;1266;138962;-66
2023/12/02 20:40:01;;;;;;;66.40;26.10;;;;;;;-1.24;89.95;99118.95;218328;1266;138711;-66
2023/12/02 20:45:06;;;;;;;64.00;23.80;;;;;;;-1.26;89.65;99120.04;217736;1266;138650;-66
2023/12/02 20:50:11;;;;;;;65.30;27.10;;;;;;;-1.23;89.57;99119.12;217642;1266;139152;-66
2023/12/02 20:55:17;;;;;;;71.00;30.30;;;;;;;-1.15;89.68;99123.11;216530;1267;140387;-66
2023/12/02 21:00:20;;;;;;;68.20;27.70;;;;;;;-1.15;89.51;99119.81;217655;1266;139154;-67
2023/12/02 21:05:25;;;;;;;72.40;29.90;;;;;;;-1.20;89.65;99118.96;219386;1266;140721;-67
2023/12/02 21:10:29;;;;;;;72.40;27.00;;;;;;;-1.23;89.31;99125.57;219282;1266;139656;-67
2023/12/02 21:15:38;;;;;;;54.10;23.30;;;;;;;-1.20;89.16;99126.77;218367;1269;139790;-67
2023/12/02 21:20:47;;;;;;;64.20;26.10;;;;;;;-1.16;89.38;99127.59;218534;1266;139144;-67
2023/12/02 21:25:53;;;;;;;65.80;30.80;;;;;;;-1.13;89.51;99131.04;218652;1260;139251;-67
2023/12/02 21:30:59;;;;;;;59.30;25.80;;;;;;;-1.12;89.42;99138.94;217463;1260;139549;-66
2023/12/02 21:36:04;;;;;;;63.40;29.10;;;;;;;-1.09;89.20;99134.44;218334;1260;139427;-66
2023/12/02 21:41:15;;;;;;;58.30;27.50;;;;;;;-1.08;89.42;99144.61;218030;1260;138911;-66
2023/12/02 21:46:26;;;;;;;52.50;25.80;;;;;;;-1.09;89.36;99147.85;217640;1263;138983;-67
2023/12/02 21:51:43;;;;;;;58.10;22.20;;;;;;;-1.14;89.08;99150.41;217845;1260;141180;-66
2023/12/02 21:56:51;;;;;;;48.80;21.40;;;;;;;-1.19;89.25;99156.31;218626;1260;138948;-69
2023/12/02 22:01:56;;;;;;;54.60;25.10;;;;;;;-1.18;89.23;99162.52;217656;1260;140255;-68
2023/12/02 22:07:03;;;;;;;59.30;26.00;;;;;;;-1.18;89.34;99171.77;217989;1262;139611;-68
2023/12/02 22:12:42;;;;;;;52.30;24.70;;;;;;;-1.22;89.14;99176.38;217518;1262;139465;-67
2023/12/02 22:17:49;;;;;;;58.40;24.80;;;;;;;-1.31;88.89;99184.81;219267;1258;141033;-68
2023/12/02 22:23:07;;;;;;;52.80;24.50;;;;;;;-1.36;89.30;99197.09;218303;1262;140120;-66
2023/12/02 22:28:15;;;;;;;385.60;164.30;;;;;;;-1.36;89.07;99204.77;219124;1257;140236;-70
2023/12/02 22:33:25;;;;;;;51.80;25.40;;;;;;;-1.33;89.57;99210.45;217848;1258;140563;-68
2023/12/02 22:38:34;;;;;;;51.90;26.90;;;;;;;-1.33;89.37;99216.68;217706;1263;141290;-70
2023/12/02 22:43:43;;;;;;;61.30;25.90;;;;;;;-1.34;89.36;99219.60;218543;1260;139429;-67
2023/12/02 22:48:51;;;;;;;52.00;25.10;;;;;;;-1.36;89.27;99219.23;218191;1258;139495;-68
2023/12/02 22:53:58;;;;;;;56.20;25.20;;;;;;;-1.34;89.54;99226.08;217902;1260;139544;-67
2023/12/02 22:59:08;;;;;;;56.10;24.50;;;;;;;-1.36;89.24;99228.69;219050;1257;140554;-67
2023/12/02 23:04:26;;;;;;;61.00;28.40;;;;;;;-1.42;89.26;99232.11;220042;1260;139740;-68
2023/12/02 23:09:57;;;;;;;56.30;25.30;;;;;;;-1.42;89.13;99231.82;220232;1260;140225;-69
2023/12/02 23:15:34;;;;;;;56.60;25.30;;;;;;;-1.40;89.28;99234.36;218694;1262;139464;-69
2023/12/02 23:20:43;;;;;;;54.40;25.60;;;;;;;-1.38;89.40;99237.65;219515;1257;139488;-69
2023/12/02 23:25:48;;;;;;;46.60;23.90;;;;;;;-1.40;89.18;99238.21;218581;1261;140622;-68
2023/12/02 23:30:52;;;;;;;47.00;24.20;;;;;;;-1.43;88.99;99239.20;217980;1260;139419;-67
2023/12/02 23:35:56;;;;;;;48.30;21.40;;;;;;;-1.45;89.13;99247.67;218353;1260;140320;-68
2023/12/02 23:41:00;;;;;;;49.70;24.20;;;;;;;-1.51;88.92;99254.45;218982;1262;139932;-67
2023/12/02 23:46:06;;;;;;;44.00;23.00;;;;;;;-1.57;88.78;99252.28;218289;1257;139532;-67
2023/12/02 23:51:10;;;;;;;46.50;22.70;;;;;;;-1.63;89.03;99254.34;217939;1257;139669;-67
2023/12/02 23:56:15;;;;;;;57.20;24.10;;;;;;;-1.67;89.04;99255.38;219252;1257;142737;-69
